Time;durP1;ratioP1;P1;durP2;ratioP2;P2;SDS_P1;SDS_P2;PMS_P1;PMS_P2;Temp;Humidity;BMP_temperature;BMP_pressure;BME280_temperature;BME280_humidity;BME280_pressure;Samples;Min_cycle;Max_cycle;Signal;HPM_P1;HPM_P2
2021/09/03 00:01:26;;;;;;;24.43;13.63;;;;;;;;;;5032139;28;20377;-46
2021/09/03 00:03:52;;;;;;;20.80;14.60;;;;;;;;;;5032558;28;20438;-46
2021/09/03 00:06:18;;;;;;;16.37;13.57;;;;;;;;;;5044153;28;20955;-48
2021/09/03 00:08:44;;;;;;;26.70;15.63;;;;;;;;;;5052685;28;20470;-48
2021/09/03 00:11:11;;;;;;;26.43;15.47;;;;;;;;;;5052422;28;20487;-45
2021/09/03 00:13:37;;;;;;;19.47;14.50;;;;;;;;;;5048386;28;20436;-46
2021/09/03 00:16:03;;;;;;;20.60;15.97;;;;;;;;;;5052567;28;20527;-47
2021/09/03 00:18:29;;;;;;;24.63;14.53;;;;;;;;;;5052420;28;20416;-46
2021/09/03 00:20:55;;;;;;;25.63;15.33;;;;;;;;;;5052266;28;20977;-47
2021/09/03 00:23:21;;;;;;;20.53;14.60;;;;;;;;;;5052299;28;20466;-49
2021/09/03 00:25:47;;;;;;;17.00;14.23;;;;;;;;;;5052466;28;20378;-45
2021/09/03 00:28:13;;;;;;;20.73;14.67;;;;;;;;;;5052395;28;20407;-48
2021/09/03 00:30:39;;;;;;;18.43;14.03;;;;;;;;;;5051938;28;20511;-45
2021/09/03 00:33:05;;;;;;;17.70;14.20;;;;;;;;;;5052292;28;20379;-46
2021/09/03 00:35:31;;;;;;;19.03;14.37;;;;;;;;;;5048056;28;20471;-46
2021/09/03 00:37:57;;;;;;;20.27;14.40;;;;;;;;;;5052306;28;20934;-46
2021/09/03 00:40:23;;;;;;;18.73;15.13;;;;;;;;;;5052025;28;20495;-45
2021/09/03 00:42:49;;;;;;;23.00;13.80;;;;;;;;;;5051945;28;20428;-46
2021/09/03 00:45:15;;;;;;;17.77;14.83;;;;;;;;;;5052044;28;20473;-46
2021/09/03 00:47:43;;;;;;;18.60;14.50;;;;;;;;;;5052033;28;20820;-47
2021/09/03 00:50:09;;;;;;;19.27;15.27;;;;;;;;;;5051859;28;20400;-48
2021/09/03 00:52:35;;;;;;;21.40;14.67;;;;;;;;;;5051820;28;20976;-49
2021/09/03 00:55:02;;;;;;;16.67;13.37;;;;;;;;;;5051845;28;20547;-46
2021/09/03 00:57:28;;;;;;;21.90;15.57;;;;;;;;;;5051872;28;20413;-49
2021/09/03 00:59:55;;;;;;;19.27;13.83;;;;;;;;;;5051761;28;20902;-48
2021/09/03 01:02:21;;;;;;;18.10;14.47;;;;;;;;;;5031614;28;20416;-47
2021/09/03 01:04:48;;;;;;;26.63;14.97;;;;;;;;;;5031212;28;20398;-46
2021/09/03 01:07:14;;;;;;;21.57;14.47;;;;;;;;;;5039925;28;20436;-46
2021/09/03 01:09:40;;;;;;;20.37;16.37;;;;;;;;;;5051807;28;20796;-46
2021/09/03 01:12:06;;;;;;;18.73;14.53;;;;;;;;;;5051401;28;20379;-46
2021/09/03 01:14:32;;;;;;;26.33;15.40;;;;;;;;;;5050629;28;20504;-46
2021/09/03 01:16:58;;;;;;;20.80;15.00;;;;;;;;;;5051645;28;20944;-45
2021/09/03 01:19:24;;;;;;;25.27;14.67;;;;;;;;;;5051680;28;20424;-45
2021/09/03 01:21:51;;;;;;;19.00;14.47;;;;;;;;;;5051237;28;20408;-45
2021/09/03 01:24:18;;;;;;;21.83;13.77;;;;;;;;;;5051784;28;20395;-45
2021/09/03 01:26:44;;;;;;;20.90;14.50;;;;;;;;;;5051543;28;20441;-49
2021/09/03 01:29:10;;;;;;;18.53;14.27;;;;;;;;;;5051454;28;20408;-46
2021/09/03 01:31:36;;;;;;;21.27;15.70;;;;;;;;;;5051327;28;20409;-47
2021/09/03 01:34:02;;;;;;;22.70;14.80;;;;;;;;;;5051441;28;20429;-48
2021/09/03 01:36:29;;;;;;;21.00;14.40;;;;;;;;;;5048090;28;20538;-46
2021/09/03 01:38:55;;;;;;;22.83;13.37;;;;;;;;;;5051450;28;20406;-46
2021/09/03 01:41:21;;;;;;;21.33;14.97;;;;;;;;;;5033581;28;20904;-46
2021/09/03 01:43:47;;;;;;;26.47;14.07;;;;;;;;;;5051425;28;20404;-46
2021/09/03 01:46:14;;;;;;;22.57;14.10;;;;;;;;;;5051504;28;20413;-46
2021/09/03 01:48:39;;;;;;;22.57;14.80;;;;;;;;;;5051353;28;20404;-46
2021/09/03 01:51:05;;;;;;;21.10;14.87;;;;;;;;;;5051158;28;20434;-46
2021/09/03 01:53:32;;;;;;;22.73;14.80;;;;;;;;;;5051571;28;20399;-48
2021/09/03 01:55:58;;;;;;;18.17;13.77;;;;;;;;;;5051281;28;20450;-46
2021/09/03 01:58:24;;;;;;;21.00;14.57;;;;;;;;;;5051369;28;20410;-46
2021/09/03 02:00:50;;;;;;;17.30;14.30;;;;;;;;;;5050829;28;20468;-46
2021/09/03 02:03:16;;;;;;;20.83;14.33;;;;;;;;;;5051307;28;20448;-46
2021/09/03 02:05:42;;;;;;;22.40;15.10;;;;;;;;;;5048146;28;20921;-46
2021/09/03 02:08:08;;;;;;;18.33;14.33;;;;;;;;;;5051285;28;20414;-46
2021/09/03 02:10:34;;;;;;;21.30;14.30;;;;;;;;;;5051042;28;20506;-49
2021/09/03 02:13:00;;;;;;;24.30;14.90;;;;;;;;;;5050962;28;20408;-49
2021/09/03 02:15:27;;;;;;;19.90;14.20;;;;;;;;;;5051090;28;20462;-45
2021/09/03 02:17:53;;;;;;;19.50;15.63;;;;;;;;;;5051180;28;20402;-47
2021/09/03 02:20:19;;;;;;;24.70;14.70;;;;;;;;;;5033169;28;20514;-47
2021/09/03 02:22:45;;;;;;;21.57;14.63;;;;;;;;;;5050830;28;20822;-45
2021/09/03 02:25:12;;;;;;;17.03;15.23;;;;;;;;;;5051663;28;20384;-46
2021/09/03 02:27:39;;;;;;;20.03;14.07;;;;;;;;;;5054716;28;20443;-48
2021/09/03 02:30:05;;;;;;;18.80;14.00;;;;;;;;;;5054581;28;20412;-46
2021/09/03 02:32:32;;;;;;;22.37;14.50;;;;;;;;;;5054342;28;20757;-46
2021/09/03 02:34:57;;;;;;;25.10;14.17;;;;;;;;;;5054513;28;20436;-45
2021/09/03 02:37:24;;;;;;;20.17;13.90;;;;;;;;;;5050468;28;20461;-45
2021/09/03 02:39:49;;;;;;;20.30;14.00;;;;;;;;;;5054370;28;20395;-46
2021/09/03 02:42:15;;;;;;;20.40;13.33;;;;;;;;;;5054161;28;20403;-46
2021/09/03 02:44:42;;;;;;;17.57;13.77;;;;;;;;;;5036723;28;20416;-46
2021/09/03 02:47:08;;;;;;;30.00;15.67;;;;;;;;;;5054323;28;20460;-46
2021/09/03 02:49:34;;;;;;;17.50;14.10;;;;;;;;;;5054246;28;20421;-45
2021/09/03 02:52:00;;;;;;;18.90;15.10;;;;;;;;;;5053912;28;20918;-46
2021/09/03 02:54:26;;;;;;;22.67;14.87;;;;;;;;;;5054252;28;20411;-46
2021/09/03 02:56:52;;;;;;;18.80;15.10;;;;;;;;;;5054105;28;20482;-48
2021/09/03 02:59:18;;;;;;;20.50;14.47;;;;;;;;;;5054069;28;20372;-47
2021/09/03 03:01:44;;;;;;;19.80;14.73;;;;;;;;;;5054003;28;20793;-45
2021/09/03 03:04:09;;;;;;;21.47;14.20;;;;;;;;;;5054027;28;20405;-46
2021/09/03 03:06:35;;;;;;;19.20;14.20;;;;;;;;;;5052573;28;20465;-46
2021/09/03 03:09:01;;;;;;;20.97;15.00;;;;;;;;;;5053742;28;20402;-46
2021/09/03 03:11:27;;;;;;;21.80;14.33;;;;;;;;;;5053697;28;20463;-46
2021/09/03 03:14:02;;;;;;;22.07;14.47;;;;;;;;;;5053880;28;20434;-46
2021/09/03 03:16:28;;;;;;;16.90;12.90;;;;;;;;;;5053857;28;20525;-45
2021/09/03 03:18:54;;;;;;;18.53;13.47;;;;;;;;;;5053721;28;20511;-45
2021/09/03 03:21:20;;;;;;;23.50;15.80;;;;;;;;;;5053630;28;20524;-46
2021/09/03 03:23:46;;;;;;;17.67;13.93;;;;;;;;;;5053434;28;20501;-46
2021/09/03 03:26:15;;;;;;;21.07;14.83;;;;;;;;;;5054442;28;20402;-45
2021/09/03 03:28:41;;;;;;;18.97;14.20;;;;;;;;;;5051801;28;20438;-50
2021/09/03 03:31:07;;;;;;;22.00;16.77;;;;;;;;;;5053263;28;20420;-50
2021/09/03 03:33:33;;;;;;;21.83;15.40;;;;;;;;;;5053600;28;20886;-50
2021/09/03 03:35:59;;;;;;;21.90;13.57;;;;;;;;;;5053240;28;20507;-48
2021/09/03 03:38:25;;;;;;;26.53;15.60;;;;;;;;;;5053316;28;21196;-50
2021/09/03 03:40:51;;;;;;;19.10;14.33;;;;;;;;;;5053021;28;20928;-49
2021/09/03 03:43:17;;;;;;;22.83;13.93;;;;;;;;;;5053301;28;20398;-48
2021/09/03 03:45:42;;;;;;;18.43;14.87;;;;;;;;;;5053197;28;20407;-50
2021/09/03 03:48:08;;;;;;;35.03;14.93;;;;;;;;;;5053312;28;20440;-51
2021/09/03 03:50:34;;;;;;;18.70;14.00;;;;;;;;;;5052985;28;20396;-51
2021/09/03 03:53:00;;;;;;;20.50;13.50;;;;;;;;;;5052879;28;20789;-49
2021/09/03 03:55:26;;;;;;;19.97;13.50;;;;;;;;;;5053002;28;20485;-50
2021/09/03 03:57:52;;;;;;;14.50;12.10;;;;;;;;;;5053081;28;20400;-50
2021/09/03 04:00:20;;;;;;;18.87;13.33;;;;;;;;;;5047666;28;20796;-50
2021/09/03 04:02:45;;;;;;;24.40;15.40;;;;;;;;;;5052734;28;20410;-50
2021/09/03 04:05:11;;;;;;;22.27;15.70;;;;;;;;;;5052744;28;20399;-49
2021/09/03 04:07:38;;;;;;;25.87;13.47;;;;;;;;;;5052843;28;20409;-50
2021/09/03 04:10:05;;;;;;;17.03;13.83;;;;;;;;;;5052698;28;20433;-49
2021/09/03 04:12:31;;;;;;;17.53;13.43;;;;;;;;;;5052415;28;20397;-50
2021/09/03 04:14:57;;;;;;;17.40;14.37;;;;;;;;;;5052648;28;20881;-48
2021/09/03 04:17:23;;;;;;;19.97;14.07;;;;;;;;;;5052615;28;20963;-50
2021/09/03 04:19:49;;;;;;;21.07;15.00;;;;;;;;;;5052475;28;20427;-50
2021/09/03 04:22:15;;;;;;;18.93;13.90;;;;;;;;;;5052032;28;20513;-49
2021/09/03 04:24:40;;;;;;;27.30;14.70;;;;;;;;;;5052548;28;20443;-50
2021/09/03 04:27:06;;;;;;;22.93;14.80;;;;;;;;;;5052412;28;20413;-48
2021/09/03 04:29:32;;;;;;;20.77;14.20;;;;;;;;;;5048310;28;20483;-50
2021/09/03 04:31:59;;;;;;;17.07;13.17;;;;;;;;;;5050847;28;20455;-50
2021/09/03 04:34:25;;;;;;;20.00;14.10;;;;;;;;;;5052302;28;20407;-50
2021/09/03 04:36:51;;;;;;;18.70;14.13;;;;;;;;;;5052102;28;20799;-51
2021/09/03 04:39:16;;;;;;;21.40;15.17;;;;;;;;;;5052208;28;20403;-48
2021/09/03 04:41:42;;;;;;;20.23;14.67;;;;;;;;;;5051917;28;20440;-48
2021/09/03 04:44:08;;;;;;;19.93;14.63;;;;;;;;;;5052232;28;20941;-50
2021/09/03 04:46:34;;;;;;;22.53;14.13;;;;;;;;;;5052120;28;20531;-49
2021/09/03 04:49:00;;;;;;;22.90;16.00;;;;;;;;;;5051505;28;20474;-50
2021/09/03 04:51:26;;;;;;;21.10;14.07;;;;;;;;;;5051868;28;20540;-51
2021/09/03 04:53:52;;;;;;;20.50;14.80;;;;;;;;;;5052026;28;20495;-50
2021/09/03 04:56:18;;;;;;;25.70;16.20;;;;;;;;;;5051980;28;20449;-50
2021/09/03 04:58:44;;;;;;;20.53;14.13;;;;;;;;;;5051951;28;20402;-50
2021/09/03 05:01:10;;;;;;;23.27;14.53;;;;;;;;;;5047308;28;20487;-48
2021/09/03 05:03:36;;;;;;;23.77;15.47;;;;;;;;;;5051799;28;20489;-48
2021/09/03 05:06:02;;;;;;;25.40;14.80;;;;;;;;;;5051805;28;20408;-48
2021/09/03 05:08:28;;;;;;;22.43;14.67;;;;;;;;;;5051780;28;20403;-48
2021/09/03 05:10:54;;;;;;;21.57;14.80;;;;;;;;;;5051585;28;20428;-47
2021/09/03 05:13:20;;;;;;;23.73;14.10;;;;;;;;;;5051741;28;20404;-50
2021/09/03 05:15:46;;;;;;;19.27;13.73;;;;;;;;;;5051720;28;20459;-50
2021/09/03 05:18:12;;;;;;;26.37;14.27;;;;;;;;;;5051620;28;20425;-49
2021/09/03 05:20:38;;;;;;;17.37;13.20;;;;;;;;;;5051699;28;20497;-49
2021/09/03 05:23:04;;;;;;;20.60;14.40;;;;;;;;;;5051265;28;20418;-50
2021/09/03 05:25:30;;;;;;;18.53;14.00;;;;;;;;;;5051700;28;20398;-49
2021/09/03 05:27:56;;;;;;;22.93;15.57;;;;;;;;;;5051705;28;20952;-49
2021/09/03 05:30:22;;;;;;;14.93;13.30;;;;;;;;;;5048935;28;20516;-48
2021/09/03 05:32:48;;;;;;;19.47;14.13;;;;;;;;;;5051338;28;20486;-49
2021/09/03 05:35:14;;;;;;;30.43;13.70;;;;;;;;;;5051353;28;20476;-48
2021/09/03 05:37:40;;;;;;;23.73;14.03;;;;;;;;;;5051596;28;20414;-49
2021/09/03 05:40:07;;;;;;;18.43;13.57;;;;;;;;;;5051376;28;20429;-47
2021/09/03 05:42:33;;;;;;;24.50;14.83;;;;;;;;;;5051310;28;20402;-49
2021/09/03 05:44:59;;;;;;;22.90;13.80;;;;;;;;;;5051435;28;20446;-50
2021/09/03 05:47:25;;;;;;;17.53;14.50;;;;;;;;;;5051402;28;20459;-48
2021/09/03 05:49:51;;;;;;;18.33;13.63;;;;;;;;;;5051242;28;20423;-48
2021/09/03 05:52:17;;;;;;;25.00;14.87;;;;;;;;;;5051299;28;20396;-46
2021/09/03 05:54:43;;;;;;;17.87;13.50;;;;;;;;;;5032676;28;20902;-50
2021/09/03 05:57:09;;;;;;;19.97;15.13;;;;;;;;;;5050750;28;20543;-50
2021/09/03 05:59:35;;;;;;;18.07;13.83;;;;;;;;;;5046240;28;20448;-49
2021/09/03 06:02:01;;;;;;;18.30;14.90;;;;;;;;;;5053875;28;20815;-51
2021/09/03 06:04:27;;;;;;;21.23;14.63;;;;;;;;;;5054287;28;20759;-49
2021/09/03 06:06:53;;;;;;;21.20;13.83;;;;;;;;;;5055260;28;20407;-50
2021/09/03 06:09:19;;;;;;;26.07;14.77;;;;;;;;;;5054991;28;20909;-49
2021/09/03 06:11:45;;;;;;;22.77;14.60;;;;;;;;;;5054562;28;20812;-50
2021/09/03 06:14:11;;;;;;;22.33;15.17;;;;;;;;;;5055037;28;20397;-49
2021/09/03 06:16:37;;;;;;;21.17;15.77;;;;;;;;;;5054811;28;20808;-48
2021/09/03 06:19:03;;;;;;;21.70;15.33;;;;;;;;;;5054806;28;20430;-48
2021/09/03 06:21:29;;;;;;;18.93;14.63;;;;;;;;;;5054526;28;20405;-49
2021/09/03 06:23:55;;;;;;;21.33;13.73;;;;;;;;;;5054728;28;20867;-48
2021/09/03 06:26:21;;;;;;;19.80;14.27;;;;;;;;;;5054692;28;20386;-49
2021/09/03 06:28:48;;;;;;;23.50;14.80;;;;;;;;;;5053042;28;20573;-50
2021/09/03 06:31:13;;;;;;;27.07;15.17;;;;;;;;;;5054247;28;20483;-51
2021/09/03 06:33:39;;;;;;;19.53;14.40;;;;;;;;;;5053446;28;20919;-48
2021/09/03 06:36:05;;;;;;;26.80;15.23;;;;;;;;;;5054481;28;20962;-50
2021/09/03 06:38:32;;;;;;;17.80;13.80;;;;;;;;;;5054568;28;20402;-50
2021/09/03 06:40:59;;;;;;;16.37;13.47;;;;;;;;;;5054383;28;20474;-50
2021/09/03 06:43:25;;;;;;;18.20;12.93;;;;;;;;;;5054296;28;20375;-49
2021/09/03 06:45:52;;;;;;;18.07;14.00;;;;;;;;;;5054423;28;20539;-49
2021/09/03 06:48:22;;;;;;;19.43;14.13;;;;;;;;;;5050125;28;20913;-49
2021/09/03 06:50:48;;;;;;;21.77;14.80;;;;;;;;;;5053225;28;20938;-51
2021/09/03 06:53:14;;;;;;;20.93;14.40;;;;;;;;;;5046323;28;20421;-49
2021/09/03 06:55:40;;;;;;;22.07;14.37;;;;;;;;;;5024504;28;20430;-50
2021/09/03 06:58:06;;;;;;;18.10;14.93;;;;;;;;;;5014369;28;20399;-50
2021/09/03 07:00:32;;;;;;;24.57;14.63;;;;;;;;;;5030692;28;20484;-50
2021/09/03 07:03:00;;;;;;;21.30;15.70;;;;;;;;;;5033847;28;20406;-49
2021/09/03 07:05:26;;;;;;;23.57;15.80;;;;;;;;;;5034194;28;20812;-51
2021/09/03 07:07:52;;;;;;;21.23;14.13;;;;;;;;;;5034068;28;20428;-50
2021/09/03 07:10:18;;;;;;;22.27;14.80;;;;;;;;;;5034023;28;20931;-50
2021/09/03 07:12:44;;;;;;;14.87;13.37;;;;;;;;;;5033246;28;20775;-51
2021/09/03 07:15:10;;;;;;;25.83;13.97;;;;;;;;;;5033910;28;20381;-51
2021/09/03 07:17:36;;;;;;;16.80;10.80;;;;;;;;;;5033817;28;20402;-51
2021/09/03 07:20:02;;;;;;;13.00;10.93;;;;;;;;;;5048065;28;20944;-51
2021/09/03 07:22:28;;;;;;;12.00;10.53;;;;;;;;;;5053352;28;20421;-51
2021/09/03 07:24:54;;;;;;;13.70;10.60;;;;;;;;;;5053641;28;20454;-51
2021/09/03 07:27:20;;;;;;;13.50;10.07;;;;;;;;;;5053671;28;20450;-52
2021/09/03 07:29:46;;;;;;;14.17;10.20;;;;;;;;;;5042337;28;20525;-51
2021/09/03 07:32:12;;;;;;;12.13;10.93;;;;;;;;;;5033362;28;20417;-50
2021/09/03 07:34:38;;;;;;;11.87;10.63;;;;;;;;;;5033522;28;20958;-50
2021/09/03 07:37:04;;;;;;;11.77;10.03;;;;;;;;;;5033485;28;20464;-50
2021/09/03 07:39:30;;;;;;;14.27;10.03;;;;;;;;;;5033336;28;20457;-51
2021/09/03 07:41:56;;;;;;;13.30;9.93;;;;;;;;;;5033154;28;20398;-51
2021/09/03 07:44:22;;;;;;;10.83;8.87;;;;;;;;;;5033354;28;20414;-51
2021/09/03 07:46:48;;;;;;;10.87;9.87;;;;;;;;;;5033616;28;20406;-51
2021/09/03 07:49:14;;;;;;;15.77;10.67;;;;;;;;;;5035741;28;20799;-52
2021/09/03 07:51:40;;;;;;;11.97;9.67;;;;;;;;;;5052835;28;20401;-51
2021/09/03 07:54:06;;;;;;;9.77;8.50;;;;;;;;;;5033633;28;20813;-51
2021/09/03 07:56:32;;;;;;;9.93;8.93;;;;;;;;;;5032712;28;20540;-50
2021/09/03 07:58:58;;;;;;;12.40;8.97;;;;;;;;;;5033075;28;20172;-51
2021/09/03 08:01:24;;;;;;;11.40;9.40;;;;;;;;;;5032578;28;20418;-50
2021/09/03 08:03:50;;;;;;;10.73;8.57;;;;;;;;;;5032968;28;20452;-52
2021/09/03 08:06:16;;;;;;;12.67;11.00;;;;;;;;;;5033066;28;20404;-52
2021/09/03 08:08:42;;;;;;;9.10;8.20;;;;;;;;;;5032845;28;20425;-51
2021/09/03 08:11:09;;;;;;;13.37;11.97;;;;;;;;;;5032505;28;20659;-50
2021/09/03 08:13:35;;;;;;;16.20;8.60;;;;;;;;;;5032574;28;20826;-50
2021/09/03 08:16:02;;;;;;;16.73;13.20;;;;;;;;;;5032551;28;20482;-51
2021/09/03 08:18:28;;;;;;;8.90;7.70;;;;;;;;;;5036722;28;20171;-51
2021/09/03 08:20:55;;;;;;;14.50;7.73;;;;;;;;;;5052409;28;20967;-51
2021/09/03 08:23:20;;;;;;;9.13;8.20;;;;;;;;;;5051485;28;20417;-51
2021/09/03 08:25:46;;;;;;;8.53;7.47;;;;;;;;;;5052391;28;20420;-50
2021/09/03 08:28:12;;;;;;;9.30;7.70;;;;;;;;;;5052470;28;20496;-50
2021/09/03 08:30:38;;;;;;;11.70;7.77;;;;;;;;;;5036169;28;20442;-49
2021/09/03 08:33:04;;;;;;;8.63;6.80;;;;;;;;;;5031030;28;20410;-49
2021/09/03 08:35:31;;;;;;;10.37;7.20;;;;;;;;;;5032270;28;20838;-51
2021/09/03 08:37:57;;;;;;;8.77;7.50;;;;;;;;;;5032406;28;20885;-48
2021/09/03 08:40:23;;;;;;;8.53;6.97;;;;;;;;;;5031420;28;20426;-49
2021/09/03 08:42:49;;;;;;;13.60;8.40;;;;;;;;;;5030249;28;20753;-51
2021/09/03 08:45:15;;;;;;;10.13;7.53;;;;;;;;;;5030786;28;20938;-52
2021/09/03 08:47:42;;;;;;;8.90;8.00;;;;;;;;;;5032132;28;20403;-52
2021/09/03 08:50:09;;;;;;;8.83;8.03;;;;;;;;;;5046647;28;20478;-49
2021/09/03 08:52:35;;;;;;;11.07;7.67;;;;;;;;;;5051598;28;20408;-51
2021/09/03 08:55:01;;;;;;;9.63;8.70;;;;;;;;;;5051729;28;20401;-51
2021/09/03 08:57:27;;;;;;;9.10;8.20;;;;;;;;;;5045592;28;20410;-51
2021/09/03 08:59:53;;;;;;;6.97;6.13;;;;;;;;;;5017677;28;20442;-49
2021/09/03 09:02:20;;;;;;;9.73;7.30;;;;;;;;;;5031881;28;20464;-49
2021/09/03 09:04:52;;;;;;;10.33;8.50;;;;;;;;;;5032105;28;20459;-49
2021/09/03 09:07:18;;;;;;;16.60;9.70;;;;;;;;;;5040914;28;20421;-51
2021/09/03 09:09:47;;;;;;;14.83;8.30;;;;;;;;;;5051488;28;20962;-51
2021/09/03 09:12:14;;;;;;;16.13;9.60;;;;;;;;;;5051539;28;20397;-52
2021/09/03 09:15:02;;;;;;;13.27;9.43;;;;;;;;;;5051683;28;20454;-50
2021/09/03 09:17:29;;;;;;;10.10;7.73;;;;;;;;;;5039229;28;20410;-51
2021/09/03 09:19:55;;;;;;;9.70;7.90;;;;;;;;;;5039156;28;20933;-50
2021/09/03 09:22:21;;;;;;;8.40;7.53;;;;;;;;;;5051293;28;20896;-49
2021/09/03 09:24:48;;;;;;;11.00;8.27;;;;;;;;;;5051655;28;20419;-51
2021/09/03 09:27:23;;;;;;;9.00;7.23;;;;;;;;;;5052080;28;20437;-48
2021/09/03 09:29:49;;;;;;;9.77;8.13;;;;;;;;;;5051336;28;20413;-49
2021/09/03 09:32:15;;;;;;;16.23;7.93;;;;;;;;;;5034941;28;20414;-50
2021/09/03 09:34:43;;;;;;;10.67;9.00;;;;;;;;;;5033000;28;20543;-48
2021/09/03 09:37:11;;;;;;;10.67;7.47;;;;;;;;;;5035630;28;20195;-48
2021/09/03 09:39:49;;;;;;;10.13;7.43;;;;;;;;;;5035455;28;20918;-47
2021/09/03 09:42:22;;;;;;;8.57;6.13;;;;;;;;;;5035330;28;20402;-48
2021/09/03 09:45:00;;;;;;;8.77;6.70;;;;;;;;;;5035336;28;20452;-50
2021/09/03 09:47:26;;;;;;;7.17;6.40;;;;;;;;;;5035447;28;20540;-49
2021/09/03 09:49:54;;;;;;;8.23;7.37;;;;;;;;;;5035306;28;20509;-47
2021/09/03 09:52:33;;;;;;;9.20;6.50;;;;;;;;;;5035162;28;20408;-47
2021/09/03 09:54:59;;;;;;;7.80;6.93;;;;;;;;;;5035337;28;20763;-48
2021/09/03 09:57:27;;;;;;;9.23;8.27;;;;;;;;;;5034914;28;20809;-49
2021/09/03 09:59:53;;;;;;;12.10;8.07;;;;;;;;;;5043858;28;20477;-47
2021/09/03 10:02:19;;;;;;;7.43;6.73;;;;;;;;;;5021322;28;20932;-47
2021/09/03 10:04:45;;;;;;;6.70;6.00;;;;;;;;;;5035216;28;20402;-48
2021/09/03 10:07:11;;;;;;;7.63;6.90;;;;;;;;;;5032721;28;20445;-47
2021/09/03 10:09:37;;;;;;;8.00;7.00;;;;;;;;;;5033829;28;20524;-47
2021/09/03 10:12:03;;;;;;;10.60;7.70;;;;;;;;;;5034171;28;20508;-49
2021/09/03 10:14:32;;;;;;;13.30;8.20;;;;;;;;;;5034439;28;20410;-49
2021/09/03 10:16:58;;;;;;;8.20;6.97;;;;;;;;;;5034944;28;20524;-47
2021/09/03 10:19:26;;;;;;;13.20;8.07;;;;;;;;;;5034797;28;20422;-47
2021/09/03 10:21:55;;;;;;;9.97;8.20;;;;;;;;;;5034571;28;20409;-47
2021/09/03 10:24:25;;;;;;;8.23;6.97;;;;;;;;;;5034930;28;20390;-46
2021/09/03 10:26:53;;;;;;;7.13;6.43;;;;;;;;;;5034845;28;20402;-47
2021/09/03 10:29:19;;;;;;;7.03;6.33;;;;;;;;;;5046852;28;20424;-46
2021/09/03 10:32:04;;;;;;;8.57;7.23;;;;;;;;;;5053248;28;20436;-47
2021/09/03 10:34:50;;;;;;;7.00;5.80;;;;;;;;;;5054609;28;21079;-46
2021/09/03 10:37:16;;;;;;;7.37;6.63;;;;;;;;;;5054502;28;20959;-47
2021/09/03 10:39:41;;;;;;;8.83;7.00;;;;;;;;;;5054426;28;20943;-47
2021/09/03 10:42:08;;;;;;;7.93;7.00;;;;;;;;;;5054249;28;20397;-47
2021/09/03 10:44:53;;;;;;;6.70;6.07;;;;;;;;;;5054401;28;20167;-47
2021/09/03 10:47:30;;;;;;;25.47;9.60;;;;;;;;;;5053509;28;20404;-47
2021/09/03 10:49:57;;;;;;;11.63;6.77;;;;;;;;;;5054217;28;20500;-47
2021/09/03 10:52:23;;;;;;;8.40;7.60;;;;;;;;;;5054039;28;20401;-47
2021/09/03 10:54:49;;;;;;;7.80;6.63;;;;;;;;;;5054156;28;20459;-47
2021/09/03 10:57:15;;;;;;;6.27;5.73;;;;;;;;;;5051784;28;20464;-47
2021/09/03 11:00:01;;;;;;;12.70;6.80;;;;;;;;;;5053246;28;20460;-47
2021/09/03 11:02:27;;;;;;;8.20;6.80;;;;;;;;;;5037533;28;20421;-47
2021/09/03 11:05:09;;;;;;;6.90;6.23;;;;;;;;;;5034092;28;20409;-47
2021/09/03 11:07:42;;;;;;;10.50;6.93;;;;;;;;;;5032940;28;20452;-49
2021/09/03 11:10:15;;;;;;;7.07;6.40;;;;;;;;;;5033944;28;20417;-47
2021/09/03 11:12:47;;;;;;;6.80;6.20;;;;;;;;;;5033778;28;20787;-47
2021/09/03 11:15:14;;;;;;;7.00;6.23;;;;;;;;;;5033903;28;20401;-46
2021/09/03 11:17:40;;;;;;;7.77;6.97;;;;;;;;;;5033855;28;20410;-49
2021/09/03 11:20:06;;;;;;;11.80;7.40;;;;;;;;;;5033921;28;20429;-46
2021/09/03 11:22:33;;;;;;;11.33;9.53;;;;;;;;;;5033444;28;20426;-47
2021/09/03 11:25:06;;;;;;;7.90;6.00;;;;;;;;;;5033648;28;20886;-48
2021/09/03 11:27:32;;;;;;;9.10;8.07;;;;;;;;;;5038366;28;20425;-47
2021/09/03 11:30:01;;;;;;;12.03;6.50;;;;;;;;;;5053288;28;20428;-47
2021/09/03 11:32:28;;;;;;;12.20;6.43;;;;;;;;;;5053342;28;20406;-49
2021/09/03 11:34:58;;;;;;;6.40;5.80;;;;;;;;;;5041496;28;20467;-47
2021/09/03 11:37:30;;;;;;;10.10;6.33;;;;;;;;;;5032856;28;20526;-47
2021/09/03 11:39:56;;;;;;;9.43;5.90;;;;;;;;;;5033266;28;20445;-47
2021/09/03 11:42:22;;;;;;;9.00;5.83;;;;;;;;;;5032974;28;20774;-47
2021/09/03 11:44:49;;;;;;;8.60;6.83;;;;;;;;;;5033405;28;20403;-48
2021/09/03 11:47:22;;;;;;;6.53;5.97;;;;;;;;;;5033388;28;20499;-46
2021/09/03 11:49:50;;;;;;;12.13;6.27;;;;;;;;;;5033220;28;20430;-47
2021/09/03 11:52:17;;;;;;;8.33;6.20;;;;;;;;;;5033064;28;20422;-50
2021/09/03 11:54:50;;;;;;;7.63;6.93;;;;;;;;;;5032645;28;20414;-49
2021/09/03 11:57:16;;;;;;;7.73;6.93;;;;;;;;;;5030628;28;20464;-47
2021/09/03 11:59:52;;;;;;;8.30;6.10;;;;;;;;;;5032217;28;20484;-48
2021/09/03 12:02:18;;;;;;;8.90;5.90;;;;;;;;;;5030521;28;20394;-47
2021/09/03 12:04:44;;;;;;;5.93;5.37;;;;;;;;;;5032530;28;20829;-47
2021/09/03 12:07:17;;;;;;;10.03;7.00;;;;;;;;;;5032523;28;20440;-47
2021/09/03 12:09:44;;;;;;;7.50;6.80;;;;;;;;;;5030955;28;20441;-47
2021/09/03 12:12:10;;;;;;;11.73;8.30;;;;;;;;;;5030707;28;20916;-47
2021/09/03 12:14:36;;;;;;;8.40;6.80;;;;;;;;;;5030953;28;20402;-47
2021/09/03 12:17:02;;;;;;;7.60;6.90;;;;;;;;;;5030699;28;20460;-48
2021/09/03 12:19:28;;;;;;;7.23;6.53;;;;;;;;;;5030786;28;20461;-47
2021/09/03 12:21:54;;;;;;;11.07;7.33;;;;;;;;;;5030487;28;20422;-48
2021/09/03 12:24:22;;;;;;;7.50;6.70;;;;;;;;;;5031923;28;20409;-47
2021/09/03 12:26:54;;;;;;;9.90;6.50;;;;;;;;;;5034019;28;20425;-47
2021/09/03 12:29:21;;;;;;;6.70;6.00;;;;;;;;;;5052480;28;20401;-48
2021/09/03 12:31:51;;;;;;;6.90;6.30;;;;;;;;;;5052127;28;20402;-47
2021/09/03 12:34:18;;;;;;;7.60;6.90;;;;;;;;;;5052234;28;20408;-51
2021/09/03 12:36:44;;;;;;;9.23;6.90;;;;;;;;;;5051910;28;20464;-47
2021/09/03 12:39:11;;;;;;;7.27;6.63;;;;;;;;;;5052209;28;20540;-47
2021/09/03 12:41:41;;;;;;;8.47;7.30;;;;;;;;;;5052153;28;20401;-47
2021/09/03 12:44:09;;;;;;;7.00;6.30;;;;;;;;;;5052076;28;20436;-47
2021/09/03 12:46:36;;;;;;;6.93;6.17;;;;;;;;;;5037618;28;20422;-50
2021/09/03 12:49:11;;;;;;;9.70;7.70;;;;;;;;;;5031366;28;20789;-47
2021/09/03 12:51:39;;;;;;;9.53;8.20;;;;;;;;;;5031137;28;20528;-49
2021/09/03 12:54:05;;;;;;;10.30;7.67;;;;;;;;;;5032058;28;20402;-45
2021/09/03 12:56:31;;;;;;;8.30;6.80;;;;;;;;;;5034843;28;20552;-45
2021/09/03 12:58:57;;;;;;;10.17;7.13;;;;;;;;;;5052013;28;20394;-44
2021/09/03 13:01:23;;;;;;;8.73;6.70;;;;;;;;;;5043800;28;20568;-44
2021/09/03 13:03:49;;;;;;;8.20;7.00;;;;;;;;;;5031943;28;20482;-44
2021/09/03 13:06:15;;;;;;;9.07;7.33;;;;;;;;;;5032061;28;20433;-45
2021/09/03 13:08:43;;;;;;;12.00;8.20;;;;;;;;;;5031804;28;20432;-44
2021/09/03 13:11:10;;;;;;;7.50;6.80;;;;;;;;;;5031666;28;20430;-45
2021/09/03 13:13:36;;;;;;;8.90;7.20;;;;;;;;;;5031818;28;20485;-45
2021/09/03 13:16:02;;;;;;;8.23;7.43;;;;;;;;;;5031914;28;20927;-45
2021/09/03 13:18:28;;;;;;;7.13;6.43;;;;;;;;;;5031926;28;20399;-45
2021/09/03 13:20:54;;;;;;;9.67;7.83;;;;;;;;;;5031703;28;20505;-46
2021/09/03 13:23:20;;;;;;;8.80;7.13;;;;;;;;;;5031672;28;20422;-45
2021/09/03 13:25:46;;;;;;;9.70;7.27;;;;;;;;;;5026862;28;20437;-51
2021/09/03 13:28:12;;;;;;;9.07;6.50;;;;;;;;;;5031635;28;20956;-46
2021/09/03 13:30:38;;;;;;;8.33;6.10;;;;;;;;;;5029888;28;20426;-44
2021/09/03 13:33:04;;;;;;;10.63;7.20;;;;;;;;;;5030133;28;20402;-46
2021/09/03 13:35:30;;;;;;;9.37;7.27;;;;;;;;;;5031655;28;20880;-45
2021/09/03 13:37:56;;;;;;;7.90;7.03;;;;;;;;;;5031617;28;20409;-48
2021/09/03 13:40:22;;;;;;;11.27;8.10;;;;;;;;;;5031591;28;20442;-48
2021/09/03 13:42:50;;;;;;;9.83;7.80;;;;;;;;;;5031383;28;20437;-45
2021/09/03 13:45:17;;;;;;;7.17;6.57;;;;;;;;;;5031672;28;20567;-44
2021/09/03 13:47:43;;;;;;;9.30;8.23;;;;;;;;;;5031611;28;20398;-44
2021/09/03 13:50:10;;;;;;;9.30;6.50;;;;;;;;;;5031567;28;20426;-45
2021/09/03 13:52:36;;;;;;;7.00;6.40;;;;;;;;;;5031404;28;20773;-47
2021/09/03 13:55:02;;;;;;;7.97;7.17;;;;;;;;;;5031388;28;20398;-47
2021/09/03 13:57:28;;;;;;;8.90;6.87;;;;;;;;;;5047268;28;20465;-51
2021/09/03 13:59:54;;;;;;;7.00;6.40;;;;;;;;;;5051283;28;20448;-50
2021/09/03 14:02:21;;;;;;;7.67;6.87;;;;;;;;;;5051147;28;20408;-47
2021/09/03 14:04:47;;;;;;;7.53;6.83;;;;;;;;;;5036972;28;20497;-47
2021/09/03 14:07:13;;;;;;;10.50;7.47;;;;;;;;;;5031499;28;20414;-47
2021/09/03 14:09:39;;;;;;;9.67;7.70;;;;;;;;;;5031221;28;20434;-48
2021/09/03 14:12:06;;;;;;;7.97;7.03;;;;;;;;;;5031211;28;20529;-47
2021/09/03 14:14:32;;;;;;;10.80;7.50;;;;;;;;;;5031401;28;20461;-47
2021/09/03 14:16:58;;;;;;;8.90;7.70;;;;;;;;;;5031377;28;20454;-47
2021/09/03 14:19:24;;;;;;;8.47;7.67;;;;;;;;;;5031356;28;20917;-47
2021/09/03 14:21:50;;;;;;;9.97;8.00;;;;;;;;;;5032615;28;20402;-49
2021/09/03 14:24:16;;;;;;;8.27;7.47;;;;;;;;;;5034927;28;20405;-48